sensor_id;sensor_type;location;lat;lon;timestamp;pressure;altitude;pressure_sealevel;temperature;humidity
9249;BME280;4660;41.768;26.198;2024-02-26T00:01:51;100615.03;;;11.42;100.00
9249;BME280;4660;41.768;26.198;2024-02-26T00:04:17;100607.97;;;11.41;100.00
9249;BME280;4660;41.768;26.198;2024-02-26T00:06:43;100617.81;;;11.50;100.00
9249;BME280;4660;41.768;26.198;2024-02-26T00:09:09;100623.72;;;11.63;100.00
9249;BME280;4660;41.768;26.198;2024-02-26T00:11:35;100614.34;;;11.40;100.00
9249;BME280;4660;41.768;26.198;2024-02-26T00:14:02;100610.28;;;10.89;100.00
9249;BME280;4660;41.768;26.198;2024-02-26T00:16:27;100610.75;;;10.74;100.00
9249;BME280;4660;41.768;26.198;2024-02-26T00:18:53;100601.25;;;10.70;100.00
9249;BME280;4660;41.768;26.198;2024-02-26T00:21:18;100599.53;;;10.89;100.00
9249;BME280;4660;41.768;26.198;2024-02-26T00:23:44;100610.34;;;11.16;100.00
9249;BME280;4660;41.768;26.198;2024-02-26T00:26:09;100603.38;;;11.14;100.00
9249;BME280;4660;41.768;26.198;2024-02-26T00:28:36;100589.38;;;11.10;100.00
9249;BME280;4660;41.768;26.198;2024-02-26T00:31:02;100603.66;;;11.20;100.00
9249;BME280;4660;41.768;26.198;2024-02-26T00:33:28;100599.41;;;11.18;100.00
9249;BME280;4660;41.768;26.198;2024-02-26T00:35:53;100592.59;;;11.23;100.00
9249;BME280;4660;41.768;26.198;2024-02-26T00:38:18;100580.31;;;11.11;100.00
9249;BME280;4660;41.768;26.198;2024-02-26T00:40:44;100592.19;;;11.18;100.00
9249;BME280;4660;41.768;26.198;2024-02-26T00:43:10;100587.91;;;11.25;100.00
9249;BME280;4660;41.768;26.198;2024-02-26T00:45:35;100576.81;;;11.28;100.00
9249;BME280;4660;41.768;26.198;2024-02-26T00:48:01;100582.16;;;11.11;100.00
9249;BME280;4660;41.768;26.198;2024-02-26T00:50:30;100576.34;;;11.06;100.00
9249;BME280;4660;41.768;26.198;2024-02-26T00:52:56;100575.00;;;10.92;100.00
9249;BME280;4660;41.768;26.198;2024-02-26T00:55:21;100582.09;;;11.20;100.00
9249;BME280;4660;41.768;26.198;2024-02-26T00:57:47;100553.50;;;11.19;100.00
9249;BME280;4660;41.768;26.198;2024-02-26T01:00:13;100561.97;;;11.24;100.00
9249;BME280;4660;41.768;26.198;2024-02-26T01:02:38;100573.53;;;11.35;100.00
9249;BME280;4660;41.768;26.198;2024-02-26T01:05:05;100568.19;;;11.52;100.00
9249;BME280;4660;41.768;26.198;2024-02-26T01:07:31;100561.63;;;11.37;100.00
9249;BME280;4660;41.768;26.198;2024-02-26T01:10:01;100565.25;;;11.46;100.00
9249;BME280;4660;41.768;26.198;2024-02-26T01:12:27;100557.88;;;11.48;100.00
9249;BME280;4660;41.768;26.198;2024-02-26T01:14:53;100540.84;;;11.29;100.00
9249;BME280;4660;41.768;26.198;2024-02-26T01:17:18;100543.56;;;11.47;100.00
9249;BME280;4660;41.768;26.198;2024-02-26T01:19:44;100540.19;;;11.63;100.00
9249;BME280;4660;41.768;26.198;2024-02-26T01:22:09;100540.19;;;11.63;100.00
9249;BME280;4660;41.768;26.198;2024-02-26T01:24:35;100515.53;;;11.40;100.00
9249;BME280;4660;41.768;26.198;2024-02-26T01:27:00;100544.72;;;11.63;100.00
9249;BME280;4660;41.768;26.198;2024-02-26T01:29:26;100549.28;;;11.07;100.00
9249;BME280;4660;41.768;26.198;2024-02-26T01:31:51;100553.22;;;11.22;100.00
9249;BME280;4660;41.768;26.198;2024-02-26T01:34:17;100551.19;;;11.24;100.00
9249;BME280;4660;41.768;26.198;2024-02-26T01:36:43;100530.44;;;10.70;100.00
9249;BME280;4660;41.768;26.198;2024-02-26T01:39:09;100524.38;;;10.68;100.00
9249;BME280;4660;41.768;26.198;2024-02-26T01:41:38;100548.00;;;10.74;100.00
9249;BME280;4660;41.768;26.198;2024-02-26T01:44:04;100545.31;;;10.74;100.00
9249;BME280;4660;41.768;26.198;2024-02-26T01:46:32;100541.84;;;10.54;100.00
9249;BME280;4660;41.768;26.198;2024-02-26T01:48:59;100543.25;;;10.58;100.00
9249;BME280;4660;41.768;26.198;2024-02-26T01:51:25;100540.03;;;10.45;100.00
9249;BME280;4660;41.768;26.198;2024-02-26T01:53:51;100523.91;;;10.26;100.00
9249;BME280;4660;41.768;26.198;2024-02-26T01:56:18;100533.81;;;10.25;100.00
9249;BME280;4660;41.768;26.198;2024-02-26T01:58:45;100544.44;;;10.27;100.00
9249;BME280;4660;41.768;26.198;2024-02-26T02:01:11;100535.75;;;10.52;100.00
9249;BME280;4660;41.768;26.198;2024-02-26T02:03:37;100539.72;;;10.58;100.00
9249;BME280;4660;41.768;26.198;2024-02-26T02:06:04;100528.84;;;10.20;100.00
9249;BME280;4660;41.768;26.198;2024-02-26T02:08:30;100515.00;;;10.06;100.00
9249;BME280;4660;41.768;26.198;2024-02-26T02:10:56;100521.38;;;10.14;100.00
9249;BME280;4660;41.768;26.198;2024-02-26T02:13:22;100522.63;;;10.10;100.00
9249;BME280;4660;41.768;26.198;2024-02-26T02:15:47;100517.94;;;10.12;100.00
9249;BME280;4660;41.768;26.198;2024-02-26T02:18:13;100515.84;;;10.26;100.00
9249;BME280;4660;41.768;26.198;2024-02-26T02:20:38;100516.66;;;10.45;100.00
9249;BME280;4660;41.768;26.198;2024-02-26T02:23:04;100514.34;;;10.60;100.00
9249;BME280;4660;41.768;26.198;2024-02-26T02:25:29;100516.31;;;10.68;100.00
9249;BME280;4660;41.768;26.198;2024-02-26T02:27:56;100522.53;;;10.68;100.00
9249;BME280;4660;41.768;26.198;2024-02-26T02:30:25;100511.13;;;10.47;100.00
9249;BME280;4660;41.768;26.198;2024-02-26T02:32:52;100518.19;;;10.58;100.00
9249;BME280;4660;41.768;26.198;2024-02-26T02:35:17;100518.03;;;10.59;100.00
9249;BME280;4660;41.768;26.198;2024-02-26T02:37:43;100499.94;;;10.52;100.00
9249;BME280;4660;41.768;26.198;2024-02-26T02:40:08;100516.50;;;10.47;100.00
9249;BME280;4660;41.768;26.198;2024-02-26T02:42:34;100515.00;;;10.25;100.00
9249;BME280;4660;41.768;26.198;2024-02-26T02:44:59;100526.59;;;10.26;100.00
9249;BME280;4660;41.768;26.198;2024-02-26T02:47:25;100519.38;;;9.97;100.00
9249;BME280;4660;41.768;26.198;2024-02-26T02:49:50;100531.97;;;9.68;100.00
9249;BME280;4660;41.768;26.198;2024-02-26T02:52:16;100523.72;;;9.50;100.00
9249;BME280;4660;41.768;26.198;2024-02-26T02:54:41;100523.03;;;9.38;100.00
9249;BME280;4660;41.768;26.198;2024-02-26T02:57:10;100519.25;;;9.50;100.00
9249;BME280;4660;41.768;26.198;2024-02-26T02:59:37;100517.41;;;9.60;100.00
9249;BME280;4660;41.768;26.198;2024-02-26T03:02:02;100526.84;;;9.55;100.00
9249;BME280;4660;41.768;26.198;2024-02-26T03:04:28;100519.78;;;9.44;100.00
9249;BME280;4660;41.768;26.198;2024-02-26T03:06:54;100526.84;;;9.45;100.00
9249;BME280;4660;41.768;26.198;2024-02-26T03:09:20;100518.66;;;9.47;100.00
9249;BME280;4660;41.768;26.198;2024-02-26T03:11:45;100520.50;;;9.36;100.00
9249;BME280;4660;41.768;26.198;2024-02-26T03:14:11;100515.75;;;9.09;100.00
9249;BME280;4660;41.768;26.198;2024-02-26T03:16:36;100515.84;;;8.98;100.00
9249;BME280;4660;41.768;26.198;2024-02-26T03:19:02;100512.53;;;8.85;100.00
9249;BME280;4660;41.768;26.198;2024-02-26T03:21:28;100495.84;;;8.72;100.00
9249;BME280;4660;41.768;26.198;2024-02-26T03:23:54;100513.00;;;8.90;100.00
9249;BME280;4660;41.768;26.198;2024-02-26T03:26:19;100499.78;;;8.68;100.00
9249;BME280;4660;41.768;26.198;2024-02-26T03:28:45;100494.50;;;8.87;100.00
9249;BME280;4660;41.768;26.198;2024-02-26T03:31:10;100508.00;;;8.76;100.00
9249;BME280;4660;41.768;26.198;2024-02-26T03:33:36;100515.59;;;8.71;100.00
9249;BME280;4660;41.768;26.198;2024-02-26T03:36:01;100518.47;;;8.79;100.00
9249;BME280;4660;41.768;26.198;2024-02-26T03:38:28;100515.00;;;8.98;100.00
9249;BME280;4660;41.768;26.198;2024-02-26T03:40:54;100511.13;;;8.81;100.00
9249;BME280;4660;41.768;26.198;2024-02-26T03:43:20;100513.31;;;8.66;100.00
9249;BME280;4660;41.768;26.198;2024-02-26T03:45:45;100504.25;;;8.58;100.00
9249;BME280;4660;41.768;26.198;2024-02-26T03:48:10;100490.22;;;8.44;100.00
9249;BME280;4660;41.768;26.198;2024-02-26T03:50:36;100507.38;;;8.63;100.00
9249;BME280;4660;41.768;26.198;2024-02-26T03:53:01;100505.66;;;8.62;100.00
9249;BME280;4660;41.768;26.198;2024-02-26T03:55:27;100511.00;;;8.52;100.00
9249;BME280;4660;41.768;26.198;2024-02-26T03:57:52;100508.50;;;8.60;100.00
9249;BME280;4660;41.768;26.198;2024-02-26T04:00:18;100505.75;;;8.81;100.00
9249;BME280;4660;41.768;26.198;2024-02-26T04:02:44;100510.69;;;8.86;100.00
9249;BME280;4660;41.768;26.198;2024-02-26T04:05:13;100512.44;;;8.87;100.00
9249;BME280;4660;41.768;26.198;2024-02-26T04:07:40;100506.38;;;8.94;100.00
9249;BME280;4660;41.768;26.198;2024-02-26T04:10:10;100507.38;;;8.93;100.00
9249;BME280;4660;41.768;26.198;2024-02-26T04:12:38;100510.06;;;9.03;100.00
9249;BME280;4660;41.768;26.198;2024-02-26T04:15:05;100507.00;;;8.77;100.00
9249;BME280;4660;41.768;26.198;2024-02-26T04:17:30;100509.31;;;8.51;100.00
9249;BME280;4660;41.768;26.198;2024-02-26T04:19:56;100500.13;;;8.53;100.00
9249;BME280;4660;41.768;26.198;2024-02-26T04:22:21;100503.44;;;8.36;100.00
9249;BME280;4660;41.768;26.198;2024-02-26T04:24:47;100510.28;;;8.29;100.00
9249;BME280;4660;41.768;26.198;2024-02-26T04:27:12;100504.91;;;8.29;100.00
9249;BME280;4660;41.768;26.198;2024-02-26T04:29:38;100503.13;;;8.60;100.00
9249;BME280;4660;41.768;26.198;2024-02-26T04:32:03;100511.06;;;8.71;100.00
9249;BME280;4660;41.768;26.198;2024-02-26T04:34:29;100488.56;;;8.53;100.00
9249;BME280;4660;41.768;26.198;2024-02-26T04:36:55;100505.00;;;8.39;100.00
9249;BME280;4660;41.768;26.198;2024-02-26T04:39:20;100509.22;;;8.41;100.00
9249;BME280;4660;41.768;26.198;2024-02-26T04:41:46;100503.72;;;8.43;100.00
9249;BME280;4660;41.768;26.198;2024-02-26T04:44:11;100510.59;;;8.36;100.00
9249;BME280;4660;41.768;26.198;2024-02-26T04:46:37;100516.44;;;8.41;100.00
9249;BME280;4660;41.768;26.198;2024-02-26T04:49:02;100517.19;;;8.32;100.00
9249;BME280;4660;41.768;26.198;2024-02-26T04:51:28;100505.13;;;8.37;100.00
9249;BME280;4660;41.768;26.198;2024-02-26T04:53:53;100487.44;;;8.14;100.00
9249;BME280;4660;41.768;26.198;2024-02-26T04:56:21;100514.53;;;8.11;100.00
9249;BME280;4660;41.768;26.198;2024-02-26T04:58:47;100514.66;;;8.09;100.00
9249;BME280;4660;41.768;26.198;2024-02-26T05:01:12;100502.34;;;8.07;100.00
9249;BME280;4660;41.768;26.198;2024-02-26T05:03:38;100518.66;;;8.15;100.00
9249;BME280;4660;41.768;26.198;2024-02-26T05:06:04;100485.63;;;8.14;100.00
9249;BME280;4660;41.768;26.198;2024-02-26T05:08:30;100515.84;;;8.37;100.00
9249;BME280;4660;41.768;26.198;2024-02-26T05:10:56;100520.47;;;8.35;100.00
9249;BME280;4660;41.768;26.198;2024-02-26T05:13:21;100515.34;;;8.32;100.00
9249;BME280;4660;41.768;26.198;2024-02-26T05:15:47;100527.28;;;8.39;100.00
9249;BME280;4660;41.768;26.198;2024-02-26T05:18:15;100530.28;;;8.25;100.00
9249;BME280;4660;41.768;26.198;2024-02-26T05:20:40;100527.06;;;8.31;100.00
9249;BME280;4660;41.768;26.198;2024-02-26T05:23:06;100533.41;;;8.09;100.00
9249;BME280;4660;41.768;26.198;2024-02-26T05:25:32;100531.81;;;8.27;100.00
9249;BME280;4660;41.768;26.198;2024-02-26T05:27:58;100532.75;;;8.17;100.00
9249;BME280;4660;41.768;26.198;2024-02-26T05:30:24;100540.84;;;8.06;100.00
9249;BME280;4660;41.768;26.198;2024-02-26T05:32:49;100549.53;;;8.19;100.00
9249;BME280;4660;41.768;26.198;2024-02-26T05:35:15;100532.34;;;8.21;100.00
9249;BME280;4660;41.768;26.198;2024-02-26T05:37:41;100549.97;;;8.35;100.00
9249;BME280;4660;41.768;26.198;2024-02-26T05:40:06;100538.78;;;8.30;100.00
9249;BME280;4660;41.768;26.198;2024-02-26T05:42:32;100547.81;;;8.29;100.00
9249;BME280;4660;41.768;26.198;2024-02-26T05:44:58;100530.28;;;8.25;100.00
9249;BME280;4660;41.768;26.198;2024-02-26T05:47:30;100532.03;;;8.36;100.00
9249;BME280;4660;41.768;26.198;2024-02-26T05:49:56;100554.44;;;8.35;100.00
9249;BME280;4660;41.768;26.198;2024-02-26T05:52:24;100552.03;;;8.11;100.00
9249;BME280;4660;41.768;26.198;2024-02-26T05:54:50;100531.47;;;8.00;100.00
9249;BME280;4660;41.768;26.198;2024-02-26T05:57:15;100544.56;;;8.14;100.00
9249;BME280;4660;41.768;26.198;2024-02-26T05:59:41;100558.69;;;8.16;100.00
9249;BME280;4660;41.768;26.198;2024-02-26T06:02:06;100544.78;;;8.02;100.00
9249;BME280;4660;41.768;26.198;2024-02-26T06:04:32;100550.13;;;8.02;100.00
9249;BME280;4660;41.768;26.198;2024-02-26T06:06:57;100549.81;;;8.16;100.00
9249;BME280;4660;41.768;26.198;2024-02-26T06:09:23;100558.75;;;8.37;100.00
9249;BME280;4660;41.768;26.198;2024-02-26T06:11:48;100559.47;;;8.39;100.00
9249;BME280;4660;41.768;26.198;2024-02-26T06:14:14;100573.50;;;8.73;100.00
9249;BME280;4660;41.768;26.198;2024-02-26T06:16:43;100563.13;;;8.90;100.00
9249;BME280;4660;41.768;26.198;2024-02-26T06:19:09;100546.41;;;8.76;100.00
9249;BME280;4660;41.768;26.198;2024-02-26T06:21:34;100557.19;;;8.86;100.00
9249;BME280;4660;41.768;26.198;2024-02-26T06:24:01;100565.38;;;8.64;100.00
9249;BME280;4660;41.768;26.198;2024-02-26T06:26:29;100554.41;;;8.46;100.00
9249;BME280;4660;41.768;26.198;2024-02-26T06:29:00;100553.25;;;8.39;100.00
9249;BME280;4660;41.768;26.198;2024-02-26T06:31:26;100549.91;;;8.46;100.00
9249;BME280;4660;41.768;26.198;2024-02-26T06:33:53;100565.94;;;8.58;100.00
9249;BME280;4660;41.768;26.198;2024-02-26T06:36:19;100557.22;;;8.65;100.00
9249;BME280;4660;41.768;26.198;2024-02-26T06:38:45;100527.13;;;8.62;100.00
9249;BME280;4660;41.768;26.198;2024-02-26T06:41:10;100559.91;;;8.96;100.00
9249;BME280;4660;41.768;26.198;2024-02-26T06:43:36;100565.44;;;9.04;100.00
9249;BME280;4660;41.768;26.198;2024-02-26T06:46:03;100516.44;;;8.71;100.00
9249;BME280;4660;41.768;26.198;2024-02-26T06:48:29;100536.75;;;8.95;100.00
9249;BME280;4660;41.768;26.198;2024-02-26T06:50:56;100555.31;;;9.07;100.00
9249;BME280;4660;41.768;26.198;2024-02-26T06:53:22;100550.13;;;9.25;100.00
9249;BME280;4660;41.768;26.198;2024-02-26T06:55:48;100559.34;;;9.42;100.00
9249;BME280;4660;41.768;26.198;2024-02-26T06:58:15;100569.69;;;9.56;100.00
9249;BME280;4660;41.768;26.198;2024-02-26T07:00:41;100529.03;;;9.21;100.00
9249;BME280;4660;41.768;26.198;2024-02-26T07:03:07;100565.28;;;9.46;100.00
9249;BME280;4660;41.768;26.198;2024-02-26T07:05:33;100507.03;;;9.27;100.00
9249;BME280;4660;41.768;26.198;2024-02-26T07:07:59;100557.28;;;9.84;100.00
9249;BME280;4660;41.768;26.198;2024-02-26T07:10:24;100563.50;;;10.14;100.00
9249;BME280;4660;41.768;26.198;2024-02-26T07:12:50;100549.09;;;10.15;100.00
9249;BME280;4660;41.768;26.198;2024-02-26T07:15:15;100565.38;;;10.33;100.00
9249;BME280;4660;41.768;26.198;2024-02-26T07:17:41;100560.81;;;10.53;100.00
9249;BME280;4660;41.768;26.198;2024-02-26T07:20:12;100560.34;;;10.57;100.00
9249;BME280;4660;41.768;26.198;2024-02-26T07:22:38;100557.81;;;10.56;100.00
9249;BME280;4660;41.768;26.198;2024-02-26T07:25:04;100553.66;;;10.71;100.00
9249;BME280;4660;41.768;26.198;2024-02-26T07:27:33;100554.13;;;10.66;100.00
9249;BME280;4660;41.768;26.198;2024-02-26T07:29:58;100568.38;;;10.77;100.00
9249;BME280;4660;41.768;26.198;2024-02-26T07:32:29;100524.28;;;10.50;100.00
9249;BME280;4660;41.768;26.198;2024-02-26T07:34:54;100566.97;;;10.82;100.00
9249;BME280;4660;41.768;26.198;2024-02-26T07:37:31;100520.41;;;10.72;100.00
9249;BME280;4660;41.768;26.198;2024-02-26T07:39:58;100566.03;;;11.28;100.00
9249;BME280;4660;41.768;26.198;2024-02-26T07:42:23;100573.34;;;11.18;100.00
9249;BME280;4660;41.768;26.198;2024-02-26T07:44:51;100564.25;;;11.19;100.00
9249;BME280;4660;41.768;26.198;2024-02-26T07:47:21;100564.75;;;11.33;100.00
9249;BME280;4660;41.768;26.198;2024-02-26T07:49:47;100546.91;;;11.32;100.00
9249;BME280;4660;41.768;26.198;2024-02-26T07:52:12;100547.19;;;11.28;100.00
9249;BME280;4660;41.768;26.198;2024-02-26T07:54:40;100518.28;;;11.30;100.00
9249;BME280;4660;41.768;26.198;2024-02-26T07:57:07;100505.50;;;11.33;100.00
9249;BME280;4660;41.768;26.198;2024-02-26T07:59:33;100554.25;;;11.57;100.00
9249;BME280;4660;41.768;26.198;2024-02-26T08:01:59;100542.50;;;11.58;100.00
9249;BME280;4660;41.768;26.198;2024-02-26T08:04:26;100533.22;;;11.43;100.00
9249;BME280;4660;41.768;26.198;2024-02-26T08:06:53;100555.75;;;11.69;100.00
9249;BME280;4660;41.768;26.198;2024-02-26T08:09:19;100556.94;;;11.84;100.00
9249;BME280;4660;41.768;26.198;2024-02-26T08:11:45;100511.25;;;11.65;100.00
9249;BME280;4660;41.768;26.198;2024-02-26T08:14:10;100546.69;;;12.06;100.00
9249;BME280;4660;41.768;26.198;2024-02-26T08:16:36;100543.16;;;12.05;100.00
9249;BME280;4660;41.768;26.198;2024-02-26T08:19:02;100549.22;;;12.25;100.00
9249;BME280;4660;41.768;26.198;2024-02-26T08:21:28;100539.06;;;12.19;100.00
9249;BME280;4660;41.768;26.198;2024-02-26T08:23:54;100548.44;;;12.33;100.00
9249;BME280;4660;41.768;26.198;2024-02-26T08:26:20;100530.66;;;12.22;100.00
9249;BME280;4660;41.768;26.198;2024-02-26T08:28:47;100530.94;;;12.37;100.00
9249;BME280;4660;41.768;26.198;2024-02-26T08:31:30;100561.13;;;12.40;100.00
9249;BME280;4660;41.768;26.198;2024-02-26T08:33:56;100545.16;;;12.47;100.00
9249;BME280;4660;41.768;26.198;2024-02-26T08:36:26;100538.31;;;12.53;100.00
9249;BME280;4660;41.768;26.198;2024-02-26T08:38:52;100535.78;;;12.51;100.00
9249;BME280;4660;41.768;26.198;2024-02-26T08:41:20;100561.38;;;12.73;100.00
9249;BME280;4660;41.768;26.198;2024-02-26T08:44:13;100565.59;;;12.76;100.00
9249;BME280;4660;41.768;26.198;2024-02-26T08:46:39;100557.03;;;12.80;100.00
9249;BME280;4660;41.768;26.198;2024-02-26T08:49:05;100531.09;;;12.87;100.00
9249;BME280;4660;41.768;26.198;2024-02-26T08:51:31;100572.09;;;13.17;100.00
9249;BME280;4660;41.768;26.198;2024-02-26T08:53:58;100549.69;;;12.99;100.00
9249;BME280;4660;41.768;26.198;2024-02-26T08:56:30;100557.53;;;13.10;100.00
9249;BME280;4660;41.768;26.198;2024-02-26T08:58:56;100537.25;;;13.06;100.00
9249;BME280;4660;41.768;26.198;2024-02-26T09:01:23;100529.94;;;12.98;100.00
9249;BME280;4660;41.768;26.198;2024-02-26T09:04:09;100543.84;;;13.37;100.00
9249;BME280;4660;41.768;26.198;2024-02-26T09:06:40;100541.16;;;13.45;100.00
9249;BME280;4660;41.768;26.198;2024-02-26T09:09:10;100535.88;;;13.36;100.00
9249;BME280;4660;41.768;26.198;2024-02-26T09:11:36;100520.16;;;13.31;100.00
9249;BME280;4660;41.768;26.198;2024-02-26T09:14:02;100544.16;;;13.34;100.00
9249;BME280;4660;41.768;26.198;2024-02-26T09:16:30;100535.09;;;13.43;100.00
9249;BME280;4660;41.768;26.198;2024-02-26T09:18:56;100538.00;;;13.66;100.00
9249;BME280;4660;41.768;26.198;2024-02-26T09:21:30;100548.00;;;13.82;100.00
9249;BME280;4660;41.768;26.198;2024-02-26T09:23:58;100512.16;;;13.72;100.00
9249;BME280;4660;41.768;26.198;2024-02-26T09:26:23;100539.41;;;14.19;100.00
9249;BME280;4660;41.768;26.198;2024-02-26T09:28:50;100543.97;;;14.43;100.00
9249;BME280;4660;41.768;26.198;2024-02-26T09:31:17;100534.50;;;14.55;100.00
9249;BME280;4660;41.768;26.198;2024-02-26T09:33:43;100523.00;;;14.53;100.00
9249;BME280;4660;41.768;26.198;2024-02-26T09:36:13;100516.59;;;14.22;100.00
9249;BME280;4660;41.768;26.198;2024-02-26T09:38:40;100519.78;;;14.17;100.00
9249;BME280;4660;41.768;26.198;2024-02-26T09:41:06;100531.63;;;14.24;100.00
9249;BME280;4660;41.768;26.198;2024-02-26T09:43:35;100538.53;;;14.35;100.00
9249;BME280;4660;41.768;26.198;2024-02-26T09:46:02;100553.44;;;14.64;100.00
9249;BME280;4660;41.768;26.198;2024-02-26T09:48:29;100522.66;;;14.65;100.00
9249;BME280;4660;41.768;26.198;2024-02-26T09:50:55;100539.91;;;14.72;100.00
9249;BME280;4660;41.768;26.198;2024-02-26T09:53:21;100519.88;;;14.89;100.00
9249;BME280;4660;41.768;26.198;2024-02-26T09:55:47;100538.03;;;15.20;100.00
9249;BME280;4660;41.768;26.198;2024-02-26T09:58:13;100541.13;;;15.48;100.00
9249;BME280;4660;41.768;26.198;2024-02-26T10:00:47;100550.88;;;15.73;100.00
9249;BME280;4660;41.768;26.198;2024-02-26T10:03:18;100552.69;;;15.81;100.00
9249;BME280;4660;41.768;26.198;2024-02-26T10:05:48;100542.75;;;15.96;100.00
9249;BME280;4660;41.768;26.198;2024-02-26T10:08:14;100550.03;;;15.95;100.00
9249;BME280;4660;41.768;26.198;2024-02-26T10:10:41;100551.84;;;16.03;100.00
9249;BME280;4660;41.768;26.198;2024-02-26T10:13:08;100523.50;;;15.83;100.00
9249;BME280;4660;41.768;26.198;2024-02-26T10:15:36;100531.63;;;16.06;100.00
9249;BME280;4660;41.768;26.198;2024-02-26T10:18:06;100519.09;;;16.05;100.00
9249;BME280;4660;41.768;26.198;2024-02-26T10:20:33;100533.31;;;16.07;100.00
9249;BME280;4660;41.768;26.198;2024-02-26T10:23:03;100522.91;;;15.95;100.00
9249;BME280;4660;41.768;26.198;2024-02-26T10:25:30;100503.06;;;15.95;100.00
9249;BME280;4660;41.768;26.198;2024-02-26T10:28:00;100503.25;;;15.93;100.00
9249;BME280;4660;41.768;26.198;2024-02-26T10:30:29;100481.44;;;15.87;100.00
9249;BME280;4660;41.768;26.198;2024-02-26T10:32:56;100496.31;;;15.91;100.00
9249;BME280;4660;41.768;26.198;2024-02-26T10:35:21;100463.81;;;15.83;100.00
9249;BME280;4660;41.768;26.198;2024-02-26T10:37:50;100474.41;;;15.92;100.00
9249;BME280;4660;41.768;26.198;2024-02-26T10:40:16;100484.06;;;15.95;100.00
9249;BME280;4660;41.768;26.198;2024-02-26T10:42:42;100474.13;;;15.87;100.00
9249;BME280;4660;41.768;26.198;2024-02-26T10:45:09;100495.97;;;15.94;100.00
9249;BME280;4660;41.768;26.198;2024-02-26T10:47:40;100496.13;;;15.92;100.00
9249;BME280;4660;41.768;26.198;2024-02-26T10:50:06;100489.13;;;15.98;100.00
9249;BME280;4660;41.768;26.198;2024-02-26T10:52:33;100492.06;;;16.11;100.00
9249;BME280;4660;41.768;26.198;2024-02-26T10:55:04;100485.09;;;16.32;100.00
9249;BME280;4660;41.768;26.198;2024-02-26T10:57:36;100484.16;;;16.24;100.00
9249;BME280;4660;41.768;26.198;2024-02-26T11:00:04;100469.09;;;16.22;100.00
9249;BME280;4660;41.768;26.198;2024-02-26T11:02:34;100469.03;;;16.45;100.00
9249;BME280;4660;41.768;26.198;2024-02-26T11:05:02;100463.72;;;16.66;100.00
9249;BME280;4660;41.768;26.198;2024-02-26T11:07:32;100436.75;;;16.80;100.00
9249;BME280;4660;41.768;26.198;2024-02-26T11:10:00;100468.94;;;17.12;100.00
9249;BME280;4660;41.768;26.198;2024-02-26T11:12:28;100454.44;;;17.41;96.41
9249;BME280;4660;41.768;26.198;2024-02-26T11:14:55;100454.81;;;17.74;90.51
9249;BME280;4660;41.768;26.198;2024-02-26T11:17:26;100450.47;;;17.80;87.35
9249;BME280;4660;41.768;26.198;2024-02-26T11:19:55;100448.19;;;17.83;81.50
9249;BME280;4660;41.768;26.198;2024-02-26T11:22:21;100432.41;;;17.94;76.62
9249;BME280;4660;41.768;26.198;2024-02-26T11:24:53;100460.38;;;18.37;73.71
9249;BME280;4660;41.768;26.198;2024-02-26T11:27:29;100458.44;;;18.59;71.38
9249;BME280;4660;41.768;26.198;2024-02-26T11:29:57;100428.88;;;18.28;69.75
9249;BME280;4660;41.768;26.198;2024-02-26T11:32:26;100447.50;;;18.52;69.00
9249;BME280;4660;41.768;26.198;2024-02-26T11:34:54;100451.31;;;18.64;69.25
9249;BME280;4660;41.768;26.198;2024-02-26T11:37:19;100430.63;;;18.70;69.35
9249;BME280;4660;41.768;26.198;2024-02-26T11:39:46;100383.59;;;18.55;69.89
9249;BME280;4660;41.768;26.198;2024-02-26T11:42:24;100441.81;;;19.30;68.67
9249;BME280;4660;41.768;26.198;2024-02-26T11:44:55;100438.75;;;18.98;67.10
9249;BME280;4660;41.768;26.198;2024-02-26T11:47:28;100430.47;;;18.78;67.67
9249;BME280;4660;41.768;26.198;2024-02-26T11:49:58;100427.00;;;18.63;68.50
9249;BME280;4660;41.768;26.198;2024-02-26T11:52:26;100413.69;;;18.75;68.47
9249;BME280;4660;41.768;26.198;2024-02-26T11:54:54;100436.28;;;19.10;68.42
9249;BME280;4660;41.768;26.198;2024-02-26T11:57:29;100446.16;;;19.11;68.04
9249;BME280;4660;41.768;26.198;2024-02-26T11:59:56;100436.28;;;19.10;68.34
9249;BME280;4660;41.768;26.198;2024-02-26T12:02:45;100430.88;;;19.16;68.44
9249;BME280;4660;41.768;26.198;2024-02-26T12:05:20;100433.16;;;19.13;68.71
9249;BME280;4660;41.768;26.198;2024-02-26T12:08:08;100432.28;;;19.06;69.48
9249;BME280;4660;41.768;26.198;2024-02-26T12:13:11;100389.31;;;19.14;69.88
9249;BME280;4660;41.768;26.198;2024-02-26T12:15:44;100398.84;;;19.45;69.27
9249;BME280;4660;41.768;26.198;2024-02-26T12:18:17;100411.00;;;19.49;69.21
9249;BME280;4660;41.768;26.198;2024-02-26T12:20:44;100398.31;;;19.02;71.15
9249;BME280;4660;41.768;26.198;2024-02-26T12:23:19;100397.00;;;18.97;71.72
9249;BME280;4660;41.768;26.198;2024-02-26T12:25:46;100414.41;;;18.96;70.62
9249;BME280;4660;41.768;26.198;2024-02-26T12:28:14;100417.31;;;18.88;70.97
9249;BME280;4660;41.768;26.198;2024-02-26T12:30:40;100420.94;;;18.95;71.01
9249;BME280;4660;41.768;26.198;2024-02-26T12:33:07;100420.53;;;19.05;71.55
9249;BME280;4660;41.768;26.198;2024-02-26T12:35:34;100421.59;;;19.04;71.02
9249;BME280;4660;41.768;26.198;2024-02-26T12:38:00;100420.78;;;19.17;70.06
9249;BME280;4660;41.768;26.198;2024-02-26T12:40:27;100420.19;;;19.35;69.83
9249;BME280;4660;41.768;26.198;2024-02-26T12:42:56;100415.56;;;19.22;69.67
9249;BME280;4660;41.768;26.198;2024-02-26T12:45:25;100421.03;;;19.22;69.55
9249;BME280;4660;41.768;26.198;2024-02-26T12:47:55;100406.91;;;19.05;70.25
9249;BME280;4660;41.768;26.198;2024-02-26T12:50:22;100389.28;;;19.01;69.71
9249;BME280;4660;41.768;26.198;2024-02-26T12:52:48;100420.66;;;19.45;69.35
9249;BME280;4660;41.768;26.198;2024-02-26T12:55:18;100405.31;;;19.31;69.60
9249;BME280;4660;41.768;26.198;2024-02-26T12:57:47;100412.47;;;19.38;69.56